Preview of NWS' New Version of Forecast
This preview is not operational and should not be used for support decisions.

Terminal Aerodrome Forecast (TAF)

Issued by National Weather Service (NWS)

                            
000
FTUS43 KDMX 192332
TAFALO
TAF
KALO 192332Z 2000/2024 13005KT P6SM FEW100
     FM200800 12004KT P6SM VCTS SCT010 BKN035CB
     FM201400 13008KT P6SM VCSH OVC015
     FM201700 16007KT P6SM BKN010
     FM202000 22008KT P6SM SCT020=